地図

経路データ

SID SEASON NUMBER BASIN SUBBASIN NAME ISO_TIME NATURE LAT LON WMO_WIND WMO_PRES WMO_AGENCY TRACK_TYPE DIST2LAND LANDFALL IFLAG USA_AGENCY USA_ATCF_ID USA_LAT USA_LON USA_RECORD USA_STATUS USA_WIND USA_PRES USA_SSHS USA_R34_NE USA_R34_SE USA_R34_SW USA_R34_NW USA_R50_NE USA_R50_SE USA_R50_SW USA_R50_NW USA_R64_NE USA_R64_SE USA_R64_SW USA_R64_NW USA_POCI USA_ROCI USA_RMW USA_EYE TOKYO_LAT TOKYO_LON TOKYO_GRADE TOKYO_WIND TOKYO_PRES TOKYO_R50_DIR TOKYO_R50_LONG TOKYO_R50_SHORT TOKYO_R30_DIR TOKYO_R30_LONG TOKYO_R30_SHORT TOKYO_LAND CMA_LAT CMA_LON CMA_CAT CMA_WIND CMA_PRES HKO_LAT HKO_LON HKO_CAT HKO_WIND HKO_PRES NEWDELHI_LAT NEWDELHI_LON NEWDELHI_GRADE NEWDELHI_WIND NEWDELHI_PRES NEWDELHI_CI NEWDELHI_DP NEWDELHI_POCI REUNION_LAT REUNION_LON REUNION_TYPE REUNION_WIND REUNION_PRES REUNION_TNUM REUNION_CI REUNION_RMW REUNION_R34_NE REUNION_R34_SE REUNION_R34_SW REUNION_R34_NW REUNION_R50_NE REUNION_R50_SE REUNION_R50_SW REUNION_R50_NW REUNION_R64_NE REUNION_R64_SE REUNION_R64_SW REUNION_R64_NW BOM_LAT BOM_LON BOM_TYPE BOM_WIND BOM_PRES BOM_TNUM BOM_CI BOM_RMW BOM_R34_NE BOM_R34_SE BOM_R34_SW BOM_R34_NW BOM_R50_NE BOM_R50_SE BOM_R50_SW BOM_R50_NW BOM_R64_NE BOM_R64_SE BOM_R64_SW BOM_R64_NW BOM_ROCI BOM_POCI BOM_EYE BOM_POS_METHOD BOM_PRES_METHOD NADI_LAT NADI_LON NADI_CAT NADI_WIND NADI_PRES WELLINGTON_LAT WELLINGTON_LON WELLINGTON_WIND WELLINGTON_PRES DS824_LAT DS824_LON DS824_STAGE DS824_WIND DS824_PRES TD9636_LAT TD9636_LON TD9636_STAGE TD9636_WIND TD9636_PRES TD9635_LAT TD9635_LON TD9635_WIND TD9635_PRES TD9635_ROCI NEUMANN_LAT NEUMANN_LON NEUMANN_CLASS NEUMANN_WIND NEUMANN_PRES MLC_LAT MLC_LON MLC_CLASS MLC_WIND MLC_PRES USA_GUST BOM_GUST BOM_GUST_PER REUNION_GUST REUNION_GUST_PER USA_SEAHGT USA_SEARAD_NE USA_SEARAD_SE USA_SEARAD_SW USA_SEARAD_NW STORM_SPEED STORM_DIR
1934261N14338 1934 56 NA NA NOT_NAMED 1934-09-18 00:00:00 TS 14.4000 -22.5000 25 hurdat_atl main 539 539 O_____________ hurdat_atl AL091934 14.4000 -22.5000 TD 25 -1 9 303
1934261N14338 1934 56 NA NA NOT_NAMED 1934-09-18 03:00:00 TS 14.6502 -22.9023 main 581 581 P_____________ AL091934 14.6502 -22.9023 TD 27 -1 9 303
1934261N14338 1934 56 NA NA NOT_NAMED 1934-09-18 06:00:00 TS 14.9000 -23.3000 30 hurdat_atl main 624 624 O_____________ hurdat_atl AL091934 14.9000 -23.3000 TD 30 -1 9 303
1934261N14338 1934 56 NA NA NOT_NAMED 1934-09-18 09:00:00 TS 15.1499 -23.6926 main 668 668 P_____________ AL091934 15.1499 -23.6926 TD 30 -1 9 303
1934261N14338 1934 56 NA NA NOT_NAMED 1934-09-18 12:00:00 TS 15.4000 -24.1000 30 hurdat_atl main 713 713 O_____________ hurdat_atl AL091934 15.4000 -24.1000 TD 30 -1 9 302
1934261N14338 1934 56 NA NA NOT_NAMED 1934-09-18 15:00:00 TS 15.6498 -24.5202 main 758 758 P_____________ AL091934 15.6498 -24.5202 TD 32 -1 10 300
1934261N14338 1934 56 NA NA NOT_NAMED 1934-09-18 18:00:00 TS 15.9000 -25.0000 35 hurdat_atl main 815 815 O_____________ hurdat_atl AL091934 15.9000 -25.0000 TS 35 0 11 297
1934261N14338 1934 56 NA NA NOT_NAMED 1934-09-18 21:00:00 TS 16.1573 -25.5551 main 884 884 P_____________ AL091934 16.1573 -25.5551 TS 35 0 13 293
1934261N14338 1934 56 NA NA NOT_NAMED 1934-09-19 00:00:00 TS 16.4000 -26.2000 35 hurdat_atl main 951 951 O_____________ hurdat_atl AL091934 16.4000 -26.2000 TS 35 0 14 289
1934261N14338 1934 56 NA NA NOT_NAMED 1934-09-19 03:00:00 TS 16.6148 -26.9126 main 1028 1028 P_____________ AL091934 16.6148 -26.9126 TS 35 0 15 286
1934261N14338 1934 56 NA NA NOT_NAMED 1934-09-19 06:00:00 TS 16.8000 -27.7000 35 hurdat_atl main 1116 1116 O_____________ hurdat_atl AL091934 16.8000 -27.7000 TS 35 0 16 282
1934261N14338 1934 56 NA NA NOT_NAMED 1934-09-19 09:00:00 TS 16.9574 -28.5427 main 1204 1204 P_____________ AL091934 16.9574 -28.5427 TS 35 0 17 280
1934261N14338 1934 56 NA NA NOT_NAMED 1934-09-19 12:00:00 TS 17.1000 -29.4000 35 hurdat_atl main 1300 1300 O_____________ hurdat_atl AL091934 17.1000 -29.4000 TS 35 0 16 280
1934261N14338 1934 56 NA NA NOT_NAMED 1934-09-19 15:00:00 TS 17.2272 -30.2154 main 1386 1386 P_____________ AL091934 17.2272 -30.2154 TS 35 0 16 281
1934261N14338 1934 56 NA NA NOT_NAMED 1934-09-19 18:00:00 TS 17.4000 -31.0000 35 hurdat_atl main 1473 1473 O_____________ hurdat_atl AL091934 17.4000 -31.0000 TS 35 0 15 286
1934261N14338 1934 56 NA NA NOT_NAMED 1934-09-19 21:00:00 TS 17.6621 -31.7577 main 1563 1563 P_____________ AL091934 17.6621 -31.7577 TS 35 0 16 293
1934261N14338 1934 56 NA NA NOT_NAMED 1934-09-20 00:00:00 TS 18.0000 -32.5000 35 hurdat_atl main 1642 1642 O_____________ hurdat_atl AL091934 18.0000 -32.5000 TS 35 0 16 297
1934261N14338 1934 56 NA NA NOT_NAMED 1934-09-20 03:00:00 TS 18.3848 -33.2576 main 1717 1717 P_____________ AL091934 18.3848 -33.2576 TS 35 0 16 299
1934261N14338 1934 56 NA NA NOT_NAMED 1934-09-20 06:00:00 TS 18.8000 -34.0000 35 hurdat_atl main 1781 1781 O_____________ hurdat_atl AL091934 18.8000 -34.0000 TS 35 0 16 301
1934261N14338 1934 56 NA NA NOT_NAMED 1934-09-20 09:00:00 TS 19.1997 -34.7153 main 1846 1846 P_____________ AL091934 19.1997 -34.7153 TS 35 0 15 301
1934261N14338 1934 56 NA NA NOT_NAMED 1934-09-20 12:00:00 TS 19.6000 -35.4000 35 hurdat_atl main 1913 1913 O_____________ hurdat_atl AL091934 19.6000 -35.4000 TS 35 0 15 302
1934261N14338 1934 56 NA NA NOT_NAMED 1934-09-20 15:00:00 TS 19.9998 -36.0653 main 1980 1980 P_____________ AL091934 19.9998 -36.0653 TS 35 0 15 303
1934261N14338 1934 56 NA NA NOT_NAMED 1934-09-20 18:00:00 TS 20.4000 -36.7000 35 hurdat_atl main 2039 2039 O_____________ hurdat_atl AL091934 20.4000 -36.7000 TS 35 0 14 304
1934261N14338 1934 56 NA NA NOT_NAMED 1934-09-20 21:00:00 TS 20.7998 -37.3153 main 2098 2098 P_____________ AL091934 20.7998 -37.3153 TS 37 0 14 305
1934261N14338 1934 56 NA NA NOT_NAMED 1934-09-21 00:00:00 TS 21.2000 -37.9000 40 hurdat_atl main 2157 2157 O_____________ hurdat_atl AL091934 21.2000 -37.9000 TS 40 0 13 307
1934261N14338 1934 56 NA NA NOT_NAMED 1934-09-21 03:00:00 TS 21.5998 -38.4653 main 2218 2218 P_____________ AL091934 21.5998 -38.4653 TS 40 0 13 308
1934261N14338 1934 56 NA NA NOT_NAMED 1934-09-21 06:00:00 TS 22.0000 -39.0000 40 hurdat_atl main 2267 2267 O_____________ hurdat_atl AL091934 22.0000 -39.0000 TS 40 0 13 309
1934261N14338 1934 56 NA NA NOT_NAMED 1934-09-21 09:00:00 TS 22.3998 -39.5153 main 2316 2316 P_____________ AL091934 22.3998 -39.5153 TS 40 0 12 311
1934261N14338 1934 56 NA NA NOT_NAMED 1934-09-21 12:00:00 TS 22.8000 -40.0000 40 hurdat_atl main 2365 2365 O_____________ hurdat_atl AL091934 22.8000 -40.0000 TS 40 0 12 312
1934261N14338 1934 56 NA NA NOT_NAMED 1934-09-21 15:00:00 TS 23.1999 -40.4653 main 2396 2396 P_____________ AL091934 23.1999 -40.4653 TS 40 0 12 314
1934261N14338 1934 56 NA NA NOT_NAMED 1934-09-21 18:00:00 TS 23.6000 -40.9000 40 hurdat_atl main 2411 2411 O_____________ hurdat_atl AL091934 23.6000 -40.9000 TS 40 0 11 316
1934261N14338 1934 56 NA NA NOT_NAMED 1934-09-21 21:00:00 TS 23.9999 -41.3227 main 2427 2421 P_____________ AL091934 23.9999 -41.3227 TS 40 0 11 318
1934261N14338 1934 56 NA NA NOT_NAMED 1934-09-22 00:00:00 TS 24.4000 -41.7000 40 hurdat_atl main 2444 2444 O_____________ hurdat_atl AL091934 24.4000 -41.7000 TS 40 0 10 320
1934261N14338 1934 56 NA NA NOT_NAMED 1934-09-22 03:00:00 TS 24.7849 -42.0377 main 2468 2463 P_____________ AL091934 24.7849 -42.0377 TS 40 0 10 326
1934261N14338 1934 56 NA NA NOT_NAMED 1934-09-22 06:00:00 TS 25.2000 -42.3000 40 hurdat_atl main 2492 2492 O_____________ hurdat_atl AL091934 25.2000 -42.3000 TS 40 0 10 334
1934261N14338 1934 56 NA NA NOT_NAMED 1934-09-22 09:00:00 TS 25.6549 -42.5098 main 2511 2456 P_____________ AL091934 25.6549 -42.5098 TS 40 0 10 345
1934261N14338 1934 56 NA NA NOT_NAMED 1934-09-22 12:00:00 TS 26.2000 -42.6000 40 hurdat_atl main 2456 2393 O_____________ hurdat_atl AL091934 26.2000 -42.6000 TS 40 0 12 358
1934261N14338 1934 56 NA NA NOT_NAMED 1934-09-22 15:00:00 TS 26.8475 -42.5526 main 2393 2316 P_____________ AL091934 26.8475 -42.5526 TS 40 0 14 7
1934261N14338 1934 56 NA NA NOT_NAMED 1934-09-22 18:00:00 TS 27.6000 -42.4000 40 hurdat_atl main 2316 2240 O_____________ hurdat_atl AL091934 27.6000 -42.4000 TS 40 0 16 11
1934261N14338 1934 56 NA NA NOT_NAMED 1934-09-22 21:00:00 TS 28.4125 -42.2223 main 2240 2166 P_____________ AL091934 28.4125 -42.2223 TS 42 0 17 12
1934261N14338 1934 56 NA NA NOT_NAMED 1934-09-23 00:00:00 TS 29.3000 -42.0000 45 hurdat_atl main 2155 2072 O_____________ hurdat_atl AL091934 29.3000 -42.0000 TS 45 0 19 12
1934261N14338 1934 56 NA NA NOT_NAMED 1934-09-23 03:00:00 TS 30.2425 -41.7574 main 2072 1994 P_____________ AL091934 30.2425 -41.7574 TS 45 0 20 13
1934261N14338 1934 56 NA NA NOT_NAMED 1934-09-23 06:00:00 TS 31.2000 -41.5000 45 hurdat_atl main 1984 1904 O_____________ hurdat_atl AL091934 31.2000 -41.5000 TS 45 0 19 13
1934261N14338 1934 56 NA NA NOT_NAMED 1934-09-23 09:00:00 TS 32.1075 -41.2422 main 1909 1831 P_____________ AL091934 32.1075 -41.2422 TS 45 0 19 13
1934261N14338 1934 56 NA NA NOT_NAMED 1934-09-23 12:00:00 TS 33.0000 -41.0000 45 hurdat_atl main 1831 1755 O_____________ hurdat_atl AL091934 33.0000 -41.0000 TS 45 0 18 12
1934261N14338 1934 56 NA NA NOT_NAMED 1934-09-23 15:00:00 TS 33.9074 -40.7846 main 1755 1682 P_____________ AL091934 33.9074 -40.7846 TS 45 0 18 10
1934261N14338 1934 56 NA NA NOT_NAMED 1934-09-23 18:00:00 TS 34.8000 -40.6000 45 hurdat_atl main 1682 1615 O_____________ hurdat_atl AL091934 34.8000 -40.6000 TS 45 0 18 9
1934261N14338 1934 56 NA NA NOT_NAMED 1934-09-23 21:00:00 TS 35.6574 -40.4419 main 1611 1547 P_____________ AL091934 35.6574 -40.4419 TS 47 0 17 8
1934261N14338 1934 56 NA NA NOT_NAMED 1934-09-24 00:00:00 TS 36.5000 -40.3000 50 hurdat_atl main 1547 1485 O_____________ hurdat_atl AL091934 36.5000 -40.3000 TS 50 0 17 8
1934261N14338 1934 56 NA NA NOT_NAMED 1934-09-24 03:00:00 TS 37.3575 -40.1497 main 1483 1424 P_____________ AL091934 37.3575 -40.1497 TS 50 0 17 8
1934261N14338 1934 56 NA NA NOT_NAMED 1934-09-24 06:00:00 TS 38.2000 -40.0000 50 1000 hurdat_atl main 1424 1369 O_____________ hurdat_atl AL091934 38.2000 -40.0000 TS 50 1000 0 17 8
1934261N14338 1934 56 NA NA NOT_NAMED 1934-09-24 09:00:00 TS 39.0299 -39.8570 main 1369 1322 P_____________ AL091934 39.0299 -39.8570 TS 50 0 16 8
1934261N14338 1934 56 NA NA NOT_NAMED 1934-09-24 12:00:00 TS 39.8000 -39.7000 50 hurdat_atl main 1322 1286 O_____________ hurdat_atl AL091934 39.8000 -39.7000 TS 50 0 15 10
1934261N14338 1934 56 NA NA NOT_NAMED 1934-09-24 15:00:00 TS 40.5024 -39.5148 main 1286 1260 P_____________ AL091934 40.5024 -39.5148 TS 50 0 13 13
1934261N14338 1934 56 NA NA NOT_NAMED 1934-09-24 18:00:00 TS 41.1000 -39.3000 50 hurdat_atl main 1260 1242 O_____________ hurdat_atl AL091934 41.1000 -39.3000 TS 50 0 11 17
1934261N14338 1934 56 NA NA NOT_NAMED 1934-09-24 21:00:00 TS 41.5797 -39.0864 main 1243 1238 P_____________ AL091934 41.5797 -39.0864 TS 50 0 10 22
1934261N14338 1934 56 NA NA NOT_NAMED 1934-09-25 00:00:00 ET 42.0000 -38.8000 50 hurdat_atl main 1241 1237 O_____________ hurdat_atl AL091934 42.0000 -38.8000 EX 50 -4 10 31
1934261N14338 1934 56 NA NA NOT_NAMED 1934-09-25 03:00:00 ET 42.4406 -38.3895 main 1246 1240 P_____________ AL091934 42.4406 -38.3895 EX 47 -4 11 36
1934261N14338 1934 56 NA NA NOT_NAMED 1934-09-25 06:00:00 ET 42.9000 -37.9000 45 hurdat_atl main 1253 O_____________ hurdat_atl AL091934 42.9000 -37.9000 EX 45 -4 12 38

IBTrACS Databaseについて

本データベースは、米国NOAAが公開する1842年以降の世界の熱帯低気圧のベストトラックデータアーカイブInternational Best Track Archive for Climate Stewardship (IBTrACS)を、ウェブで閲覧しやすい形式に変換したものです。

最終更新日:2021-12-03